Autopride — CQQE — position and weather

sailwx.info

Track history (hours):
 
Tides and Currents Weather Stations Pressure Air Temp Water Temp Dewpoint Dewpoint Depression Visibility Wind Speed Wind Dir Waves Ship Positions

Autopride

Last reported at 2015-May-02 07:23 UTC. Time now 2015-May-04 18:05 UTC.
Position N 50°27' W 005°47'.

Length 125 m; draft 4.8 m.

Type: Cargo ship. MMSI: 255801560.

Date/timePositionNaut miles runAvg speedWind from/ knotsBaromVisibWave heightAir tempDewpointWater temp
2015-May-02 07:23N 50°27' W 005°47'8 9.9
2015-May-02 06:33N 50°32' W 005°37'9 9.4
2015-May-02 05:33N 50°38' W 005°26'9 8.8
2015-May-02 04:33N 50°43' W 005°15'8 8.4
2015-May-02 03:33N 50°49' W 005°05'90 9.9
2015-May-01 18:33N 51°27' W 002°56'9 7.9
2015-May-01 17:28N 51°30' W 002°43'0 0.0
2015-May-01 16:28N 51°30' W 002°43'0 0.0
2015-May-01 15:32N 51°30' W 002°43'0 0.0
2015-May-01 14:31N 51°30' W 002°43'0 0.0
2015-May-01 13:31N 51°30' W 002°43'0 0.0
2015-May-01 12:31N 51°30' W 002°43'0 0.0
2015-May-01 11:31N 51°30' W 002°43'0 0.0
2015-May-01 10:31N 51°30' W 002°43'0 0.0
2015-May-01 09:31N 51°30' W 002°43'0 0.0
2015-May-01 08:31N 51°30' W 002°43'0 0.0
2015-May-01 07:31N 51°30' W 002°43'0 0.0
2015-May-01 06:31N 51°30' W 002°43'0 0.0
2015-May-01 05:31N 51°30' W 002°43'0 0.0
2015-May-01 04:28N 51°30' W 002°43'0 0.0
2015-May-01 03:28N 51°30' W 002°43'0 0.0
2015-May-01 02:31N 51°30' W 002°43'0 0.0
2015-May-01 01:31N 51°30' W 002°43'0 0.0
2015-May-01 00:28N 51°30' W 002°43'0 0.0
2015-Apr-30 23:31N 51°30' W 002°43'0 0.0
2015-Apr-30 22:31N 51°30' W 002°43'0 0.0
2015-Apr-30 21:31N 51°30' W 002°43'0 0.0
2015-Apr-30 20:31N 51°30' W 002°43'0 0.0
2015-Apr-30 19:31N 51°30' W 002°43'0 0.0
2015-Apr-30 18:31N 51°30' W 002°43'0 0.0
2015-Apr-30 17:31N 51°30' W 002°43'0 0.0
2015-Apr-30 16:28N 51°30' W 002°43'0 0.0
2015-Apr-30 15:31N 51°30' W 002°43'0 0.0
2015-Apr-30 14:31N 51°30' W 002°43'0 0.0
2015-Apr-30 13:34N 51°30' W 002°43'0 0.0
2015-Apr-30 12:33N 51°30' W 002°43'0 0.0
2015-Apr-30 11:33N 51°30' W 002°43'0 0.0
2015-Apr-30 10:33N 51°30' W 002°43'0 0.0
2015-Apr-30 09:33N 51°30' W 002°43'0 0.0
2015-Apr-30 08:30N 51°30' W 002°43'0 0.0
2015-Apr-30 07:33N 51°30' W 002°43'0 0.0
2015-Apr-30 06:33N 51°30' W 002°43'0 0.0
2015-Apr-30 05:33N 51°30' W 002°43'0 0.0
2015-Apr-30 04:33N 51°30' W 002°43'0 0.0
2015-Apr-30 03:27N 51°30' W 002°43'0 0.0
2015-Apr-30 02:33N 51°30' W 002°43'0 0.0
2015-Apr-30 01:33N 51°30' W 002°43'0 0.0
2015-Apr-30 00:33N 51°30' W 002°43'0 0.0
2015-Apr-29 23:33N 51°30' W 002°43'0 0.0
2015-Apr-29 22:33N 51°30' W 002°43'0 0.0
2015-Apr-29 21:33N 51°30' W 002°43'0 0.0
2015-Apr-29 20:33N 51°30' W 002°43'0 0.0
2015-Apr-29 19:33N 51°30' W 002°43'0 0.0
2015-Apr-29 18:33N 51°30' W 002°43'0 0.0
2015-Apr-29 17:30N 51°30' W 002°43'0 0.0
2015-Apr-29 16:33N 51°30' W 002°43'0 0.0
2015-Apr-29 15:33N 51°30' W 002°43'0 0.0
2015-Apr-29 14:33N 51°30' W 002°43'0 0.0
2015-Apr-29 13:30N 51°30' W 002°43'0 0.0
2015-Apr-29 12:30N 51°30' W 002°43'0 0.0
2015-Apr-29 11:33N 51°30' W 002°43'0 0.0
2015-Apr-29 10:33N 51°30' W 002°43'0 0.0
2015-Apr-29 09:33N 51°30' W 002°43'0 0.0
2015-Apr-29 08:33N 51°30' W 002°43'0 0.0
2015-Apr-29 07:33N 51°30' W 002°43'0 0.0
2015-Apr-29 06:33N 51°30' W 002°43'0 0.0
2015-Apr-29 05:33N 51°30' W 002°43'0 0.0
2015-Apr-29 04:30N 51°30' W 002°43'0 0.0
2015-Apr-29 03:30N 51°30' W 002°43'0 0.0
2015-Apr-29 02:33N 51°30' W 002°43'0 0.0
2015-Apr-29 01:30N 51°30' W 002°43'0 0.0
2015-Apr-29 00:33N 51°30' W 002°43'0 0.0
2015-Apr-28 23:32N 51°30' W 002°43'0 0.0
2015-Apr-28 22:32N 51°30' W 002°43'0 0.0
2015-Apr-28 21:32N 51°30' W 002°43'0 0.0
2015-Apr-28 20:29N 51°30' W 002°43'0 0.0
2015-Apr-28 19:29N 51°30' W 002°43'0 0.0
2015-Apr-28 18:32N 51°30' W 002°43'0 0.0
2015-Apr-28 17:29N 51°30' W 002°43'0 0.0
2015-Apr-28 16:32N 51°30' W 002°43'0 0.0
2015-Apr-28 15:32N 51°30' W 002°43'0 0.0
2015-Apr-28 14:26N 51°30' W 002°43'0 0.0
2015-Apr-28 13:29N 51°30' W 002°43'0 0.0
2015-Apr-28 12:32N 51°30' W 002°43'0 0.0
2015-Apr-28 11:32N 51°30' W 002°43'0 0.0
2015-Apr-28 10:32N 51°30' W 002°43'0 0.0
2015-Apr-28 09:29N 51°30' W 002°43'0 0.0
2015-Apr-28 08:29N 51°30' W 002°43'0 0.0
2015-Apr-28 07:32N 51°30' W 002°43'0 0.0
2015-Apr-28 06:29N 51°30' W 002°43'0 0.0
2015-Apr-28 05:32N 51°30' W 002°43'0 0.0
2015-Apr-28 04:29N 51°30' W 002°43'0 0.0
2015-Apr-28 03:29N 51°30' W 002°43'0 0.0
2015-Apr-28 02:29N 51°30' W 002°43'0 0.0
2015-Apr-28 01:32N 51°30' W 002°43'0 0.0
2015-Apr-28 00:29N 51°30' W 002°43'0 0.0
2015-Apr-27 23:32N 51°30' W 002°43'0 0.0
2015-Apr-27 22:32N 51°30' W 002°43'0 0.0
2015-Apr-27 21:32N 51°30' W 002°43'0 0.0
2015-Apr-27 20:32N 51°30' W 002°43'0 0.0
2015-Apr-27 19:32N 51°30' W 002°43'0 0.4
2015-Apr-27 18:33N 51°30' W 002°43'0 0.0
2015-Apr-27 17:30N 51°30' W 002°43'0 0.0
2015-Apr-27 16:33N 51°30' W 002°43'0 0.0
2015-Apr-27 15:33N 51°30' W 002°43'0 0.0
2015-Apr-27 14:33N 51°30' W 002°43'0 0.0
2015-Apr-27 13:30N 51°30' W 002°43'0 0.0
2015-Apr-27 12:33N 51°30' W 002°43'0 0.0
2015-Apr-27 11:33N 51°30' W 002°43'0 0.0
2015-Apr-27 10:33N 51°30' W 002°43'0 0.0
2015-Apr-27 09:33N 51°30' W 002°43'0 0.0
2015-Apr-27 08:33N 51°30' W 002°43'0 0.0
2015-Apr-27 07:33N 51°30' W 002°43'0 0.0
2015-Apr-27 06:33N 51°30' W 002°43'0 0.0
2015-Apr-27 05:33N 51°30' W 002°43'0 0.0
2015-Apr-27 04:33N 51°30' W 002°43'0 0.0
2015-Apr-27 03:33N 51°30' W 002°43'0 0.0
2015-Apr-27 02:33N 51°30' W 002°43'0 0.0
2015-Apr-27 01:33N 51°30' W 002°43'0 0.1
2015-Apr-27 00:33N 51°30' W 002°43'2 2.2
2015-Apr-26 23:33N 51°30' W 002°47'1313.3
2015-Apr-26 22:33N 51°23' W 003°05'9310.3
2015-Apr-26 13:33N 50°41' W 005°16'10 9.8
2015-Apr-26 12:33N 50°34' W 005°28'9 9.0
2015-Apr-26 11:33N 50°28' W 005°38'403 9.5
2015-Apr-24 17:16N 44°06' W 002°31'1710.1
2015-Apr-24 15:33N 43°51' W 002°19'11 9.9
2015-Apr-24 14:29N 43°42' W 002°12'2010.2
2015-Apr-24 12:32N 43°24' W 001°58'4 0.2
2015-Apr-23 17:33N 43°21' W 001°56'  
Track history (hours):
 
Tides and Currents Weather Stations Pressure Air Temp Water Temp Dewpoint Dewpoint Depression Visibility Wind Speed Wind Dir Waves Ship Positions

Autopride

Last reported at 2015-May-02 07:23 UTC. Time now 2015-May-04 18:05 UTC.
Position N 50°27' W 005°47'.

Length 125 m; draft 4.8 m.

Type: Cargo ship. MMSI: 255801560.

Date/timePositionNaut miles runAvg speedWind from/ knotsBaromVisibWave heightAir tempDewpointWater temp
2015-May-02 07:23N 50°27' W 005°47'8 9.9
2015-May-02 06:33N 50°32' W 005°37'9 9.4
2015-May-02 05:33N 50°38' W 005°26'9 8.8
2015-May-02 04:33N 50°43' W 005°15'8 8.4
2015-May-02 03:33N 50°49' W 005°05'90 9.9
2015-May-01 18:33N 51°27' W 002°56'9 7.9
2015-May-01 17:28N 51°30' W 002°43'0 0.0
2015-May-01 16:28N 51°30' W 002°43'0 0.0
2015-May-01 15:32N 51°30' W 002°43'0 0.0
2015-May-01 14:31N 51°30' W 002°43'0 0.0
2015-May-01 13:31N 51°30' W 002°43'0 0.0
2015-May-01 12:31N 51°30' W 002°43'0 0.0
2015-May-01 11:31N 51°30' W 002°43'0 0.0
2015-May-01 10:31N 51°30' W 002°43'0 0.0
2015-May-01 09:31N 51°30' W 002°43'0 0.0
2015-May-01 08:31N 51°30' W 002°43'0 0.0
2015-May-01 07:31N 51°30' W 002°43'0 0.0
2015-May-01 06:31N 51°30' W 002°43'0 0.0
2015-May-01 05:31N 51°30' W 002°43'0 0.0
2015-May-01 04:28N 51°30' W 002°43'0 0.0
2015-May-01 03:28N 51°30' W 002°43'0 0.0
2015-May-01 02:31N 51°30' W 002°43'0 0.0
2015-May-01 01:31N 51°30' W 002°43'0 0.0
2015-May-01 00:28N 51°30' W 002°43'0 0.0
2015-Apr-30 23:31N 51°30' W 002°43'0 0.0
2015-Apr-30 22:31N 51°30' W 002°43'0 0.0
2015-Apr-30 21:31N 51°30' W 002°43'0 0.0
2015-Apr-30 20:31N 51°30' W 002°43'0 0.0
2015-Apr-30 19:31N 51°30' W 002°43'0 0.0
2015-Apr-30 18:31N 51°30' W 002°43'0 0.0
2015-Apr-30 17:31N 51°30' W 002°43'0 0.0
2015-Apr-30 16:28N 51°30' W 002°43'0 0.0
2015-Apr-30 15:31N 51°30' W 002°43'0 0.0
2015-Apr-30 14:31N 51°30' W 002°43'0 0.0
2015-Apr-30 13:34N 51°30' W 002°43'0 0.0
2015-Apr-30 12:33N 51°30' W 002°43'0 0.0
2015-Apr-30 11:33N 51°30' W 002°43'0 0.0
2015-Apr-30 10:33N 51°30' W 002°43'0 0.0
2015-Apr-30 09:33N 51°30' W 002°43'0 0.0
2015-Apr-30 08:30N 51°30' W 002°43'0 0.0
2015-Apr-30 07:33N 51°30' W 002°43'0 0.0
2015-Apr-30 06:33N 51°30' W 002°43'0 0.0
2015-Apr-30 05:33N 51°30' W 002°43'0 0.0
2015-Apr-30 04:33N 51°30' W 002°43'0 0.0
2015-Apr-30 03:27N 51°30' W 002°43'0 0.0
2015-Apr-30 02:33N 51°30' W 002°43'0 0.0
2015-Apr-30 01:33N 51°30' W 002°43'0 0.0
2015-Apr-30 00:33N 51°30' W 002°43'0 0.0
2015-Apr-29 23:33N 51°30' W 002°43'0 0.0
2015-Apr-29 22:33N 51°30' W 002°43'0 0.0
2015-Apr-29 21:33N 51°30' W 002°43'0 0.0
2015-Apr-29 20:33N 51°30' W 002°43'0 0.0
2015-Apr-29 19:33N 51°30' W 002°43'0 0.0
2015-Apr-29 18:33N 51°30' W 002°43'0 0.0
2015-Apr-29 17:30N 51°30' W 002°43'0 0.0
2015-Apr-29 16:33N 51°30' W 002°43'0 0.0
2015-Apr-29 15:33N 51°30' W 002°43'0 0.0
2015-Apr-29 14:33N 51°30' W 002°43'0 0.0
2015-Apr-29 13:30N 51°30' W 002°43'0 0.0
2015-Apr-29 12:30N 51°30' W 002°43'0 0.0
2015-Apr-29 11:33N 51°30' W 002°43'0 0.0
2015-Apr-29 10:33N 51°30' W 002°43'0 0.0
2015-Apr-29 09:33N 51°30' W 002°43'0 0.0
2015-Apr-29 08:33N 51°30' W 002°43'0 0.0
2015-Apr-29 07:33N 51°30' W 002°43'0 0.0
2015-Apr-29 06:33N 51°30' W 002°43'0 0.0
2015-Apr-29 05:33N 51°30' W 002°43'0 0.0
2015-Apr-29 04:30N 51°30' W 002°43'0 0.0
2015-Apr-29 03:30N 51°30' W 002°43'0 0.0
2015-Apr-29 02:33N 51°30' W 002°43'0 0.0
2015-Apr-29 01:30N 51°30' W 002°43'0 0.0
2015-Apr-29 00:33N 51°30' W 002°43'0 0.0
2015-Apr-28 23:32N 51°30' W 002°43'0 0.0
2015-Apr-28 22:32N 51°30' W 002°43'0 0.0
2015-Apr-28 21:32N 51°30' W 002°43'0 0.0
2015-Apr-28 20:29N 51°30' W 002°43'0 0.0
2015-Apr-28 19:29N 51°30' W 002°43'0 0.0
2015-Apr-28 18:32N 51°30' W 002°43'0 0.0
2015-Apr-28 17:29N 51°30' W 002°43'0 0.0
2015-Apr-28 16:32N 51°30' W 002°43'0 0.0
2015-Apr-28 15:32N 51°30' W 002°43'0 0.0
2015-Apr-28 14:26N 51°30' W 002°43'0 0.0
2015-Apr-28 13:29N 51°30' W 002°43'0 0.0
2015-Apr-28 12:32N 51°30' W 002°43'0 0.0
2015-Apr-28 11:32N 51°30' W 002°43'0 0.0
2015-Apr-28 10:32N 51°30' W 002°43'0 0.0
2015-Apr-28 09:29N 51°30' W 002°43'0 0.0
2015-Apr-28 08:29N 51°30' W 002°43'0 0.0
2015-Apr-28 07:32N 51°30' W 002°43'0 0.0
2015-Apr-28 06:29N 51°30' W 002°43'0 0.0
2015-Apr-28 05:32N 51°30' W 002°43'0 0.0
2015-Apr-28 04:29N 51°30' W 002°43'0 0.0
2015-Apr-28 03:29N 51°30' W 002°43'0 0.0
2015-Apr-28 02:29N 51°30' W 002°43'0 0.0
2015-Apr-28 01:32N 51°30' W 002°43'0 0.0
2015-Apr-28 00:29N 51°30' W 002°43'0 0.0
2015-Apr-27 23:32N 51°30' W 002°43'0 0.0
2015-Apr-27 22:32N 51°30' W 002°43'0 0.0
2015-Apr-27 21:32N 51°30' W 002°43'0 0.0
2015-Apr-27 20:32N 51°30' W 002°43'0 0.0
2015-Apr-27 19:32N 51°30' W 002°43'0 0.4
2015-Apr-27 18:33N 51°30' W 002°43'0 0.0
2015-Apr-27 17:30N 51°30' W 002°43'0 0.0
2015-Apr-27 16:33N 51°30' W 002°43'0 0.0
2015-Apr-27 15:33N 51°30' W 002°43'0 0.0
2015-Apr-27 14:33N 51°30' W 002°43'0 0.0
2015-Apr-27 13:30N 51°30' W 002°43'0 0.0
2015-Apr-27 12:33N 51°30' W 002°43'0 0.0
2015-Apr-27 11:33N 51°30' W 002°43'0 0.0
2015-Apr-27 10:33N 51°30' W 002°43'0 0.0
2015-Apr-27 09:33N 51°30' W 002°43'0 0.0
2015-Apr-27 08:33N 51°30' W 002°43'0 0.0
2015-Apr-27 07:33N 51°30' W 002°43'0 0.0
2015-Apr-27 06:33N 51°30' W 002°43'0 0.0
2015-Apr-27 05:33N 51°30' W 002°43'0 0.0
2015-Apr-27 04:33N 51°30' W 002°43'0 0.0
2015-Apr-27 03:33N 51°30' W 002°43'0 0.0
2015-Apr-27 02:33N 51°30' W 002°43'0 0.0
2015-Apr-27 01:33N 51°30' W 002°43'0 0.1
2015-Apr-27 00:33N 51°30' W 002°43'2 2.2
2015-Apr-26 23:33N 51°30' W 002°47'1313.3
2015-Apr-26 22:33N 51°23' W 003°05'9310.3
2015-Apr-26 13:33N 50°41' W 005°16'10 9.8
2015-Apr-26 12:33N 50°34' W 005°28'9 9.0
2015-Apr-26 11:33N 50°28' W 005°38'403 9.5
2015-Apr-24 17:16N 44°06' W 002°31'1710.1
2015-Apr-24 15:33N 43°51' W 002°19'11 9.9
2015-Apr-24 14:29N 43°42' W 002°12'2010.2
2015-Apr-24 12:32N 43°24' W 001°58'4 0.2
2015-Apr-23 17:33N 43°21' W 001°56'  

Dump ship's entire track history